Time;durP1;ratioP1;P1;durP2;ratioP2;P2;SDS_P1;SDS_P2;PMS_P1;PMS_P2;Temp;Humidity;BMP_temperature;BMP_pressure;BME280_temperature;BME280_humidity;BME280_pressure;Samples;Min_cycle;Max_cycle;Signal;HPM_P1;HPM_P2
2021/01/09 00:01:38;;;;;;;10.73;8.02;;;;;;;8.28;nan;101242.38;4957719;28;99144;-70
2021/01/09 00:04:06;;;;;;;9.98;7.70;;;;;;;8.23;nan;101252.47;4974960;28;97786;-69
2021/01/09 00:06:39;;;;;;;12.60;8.90;;;;;;;8.21;nan;101243.63;4978546;28;96999;-69
2021/01/09 00:09:07;;;;;;;11.30;8.43;;;;;;;8.24;nan;101243.88;4972999;28;97401;-69
2021/01/09 00:11:34;;;;;;;10.68;7.88;;;;;;;8.25;nan;101240.44;4942217;28;99013;-69
2021/01/09 00:14:02;;;;;;;11.40;8.50;;;;;;;8.25;nan;101234.31;4974543;28;98041;-69
2021/01/09 00:16:30;;;;;;;12.75;8.85;;;;;;;8.25;nan;101234.31;4978216;28;97380;-70
2021/01/09 00:18:58;;;;;;;10.02;8.23;;;;;;;8.21;nan;101231.44;4974491;28;98111;-70
2021/01/09 00:21:34;;;;;;;10.77;7.43;;;;;;;8.20;nan;101239.19;4976248;28;97802;-70
2021/01/09 00:24:03;;;;;;;11.32;8.38;;;;;;;8.16;nan;101238.06;4959648;28;96870;-70
2021/01/09 00:26:30;;;;;;;8.48;7.38;;;;;;;8.18;nan;101246.94;4973317;28;97453;-70
2021/01/09 00:28:58;;;;;;;9.57;8.52;;;;;;;8.12;nan;101241.25;4959091;28;98127;-70
2021/01/09 00:31:44;;;;;;;11.52;8.15;;;;;;;8.10;nan;101242.84;4972697;28;98180;-69
2021/01/09 00:34:30;;;;;;;8.60;7.70;;;;;;;8.06;nan;101246.06;4977149;28;97797;-70
2021/01/09 00:36:58;;;;;;;12.25;8.18;;;;;;;8.05;nan;101243.34;4959737;28;97221;-70
2021/01/09 00:39:25;;;;;;;8.85;7.38;;;;;;;8.01;nan;101242.22;4976421;28;98370;-70
2021/01/09 00:41:53;;;;;;;8.32;7.53;;;;;;;8.04;nan;101247.69;4974415;28;98079;-71
2021/01/09 00:44:21;;;;;;;10.00;8.13;;;;;;;7.99;nan;101251.66;4959822;28;96737;-71
2021/01/09 00:46:48;;;;;;;9.85;8.80;;;;;;;7.96;nan;101256.69;4957600;28;98317;-70
2021/01/09 00:49:16;;;;;;;9.45;7.50;;;;;;;7.93;nan;101259.09;4975199;28;98060;-72
2021/01/09 00:51:46;;;;;;;10.15;7.47;;;;;;;7.90;nan;101253.63;4976806;28;98811;-71
2021/01/09 00:54:14;;;;;;;12.15;8.27;;;;;;;7.85;nan;101265.47;4959574;28;97182;-70
2021/01/09 00:56:41;;;;;;;9.40;7.43;;;;;;;7.85;nan;101262.84;4959052;28;96862;-69
2021/01/09 00:59:09;;;;;;;9.40;7.88;;;;;;;7.86;nan;101259.47;4957692;28;98183;-71
2021/01/09 01:01:36;;;;;;;9.63;7.97;;;;;;;7.88;nan;101260.44;4975188;28;97813;-70
2021/01/09 01:04:04;;;;;;;8.48;7.47;;;;;;;7.91;nan;101260.69;4942769;28;97315;-69
2021/01/09 01:06:32;;;;;;;9.75;8.25;;;;;;;7.90;nan;101258.84;4957273;28;97011;-71
2021/01/09 01:09:04;;;;;;;8.85;7.10;;;;;;;7.96;nan;101258.38;4977346;28;100698;-70
2021/01/09 01:11:31;;;;;;;9.32;7.57;;;;;;;7.96;nan;101263.63;4975825;28;97783;-71
2021/01/09 01:13:59;;;;;;;8.55;7.75;;;;;;;7.96;nan;101264.53;4958516;28;97558;-71
2021/01/09 01:16:26;;;;;;;9.75;7.60;;;;;;;7.96;nan;101266.22;4975689;28;96672;-69
2021/01/09 01:18:54;;;;;;;10.30;7.78;;;;;;;7.96;nan;101277.59;4955817;28;98008;-68
2021/01/09 01:21:21;;;;;;;9.52;7.85;;;;;;;8.03;nan;101273.72;4975441;28;97907;-68
2021/01/09 01:23:49;;;;;;;12.93;8.18;;;;;;;8.08;nan;101273.22;4958352;28;97116;-70
2021/01/09 01:26:18;;;;;;;9.00;8.02;;;;;;;8.14;nan;101275.38;4976831;28;98905;-69
2021/01/09 01:28:46;;;;;;;9.52;7.15;;;;;;;8.17;nan;101283.47;4943198;28;101200;-72
2021/01/09 01:31:13;;;;;;;10.23;7.93;;;;;;;8.20;nan;101286.28;4957623;28;98068;-69
2021/01/09 01:33:41;;;;;;;9.55;7.78;;;;;;;8.22;nan;101279.44;4975219;28;97621;-69
2021/01/09 01:36:09;;;;;;;8.65;7.35;;;;;;;8.23;nan;101280.38;4976317;28;97410;-70
2021/01/09 01:38:38;;;;;;;10.30;8.10;;;;;;;8.21;nan;101283.75;4976024;28;99327;-70
2021/01/09 01:41:06;;;;;;;9.93;8.10;;;;;;;8.20;nan;101287.19;4976434;28;97372;-70
2021/01/09 01:43:35;;;;;;;9.82;8.32;;;;;;;8.23;nan;101284.78;4977185;28;96798;-70
2021/01/09 01:46:04;;;;;;;9.02;7.82;;;;;;;8.28;nan;101295.63;4979338;28;96916;-70
2021/01/09 01:48:33;;;;;;;9.73;7.50;;;;;;;8.30;nan;101280.94;4978222;28;97130;-70
2021/01/09 01:51:01;;;;;;;9.23;7.80;;;;;;;8.30;nan;101290.50;4978281;28;97937;-71
2021/01/09 01:53:28;;;;;;;9.05;7.45;;;;;;;8.29;nan;101288.66;4981048;28;97161;-70
2021/01/09 01:55:56;;;;;;;8.50;7.43;;;;;;;8.31;nan;101290.59;4978910;28;97232;-73
2021/01/09 01:58:24;;;;;;;9.10;6.78;;;;;;;8.35;nan;101289.09;4979276;28;97761;-70
2021/01/09 02:00:52;;;;;;;8.77;7.88;;;;;;;8.35;nan;101292.63;4977389;28;97679;-70
2021/01/09 02:03:21;;;;;;;8.98;7.53;;;;;;;8.33;nan;101293.31;4980878;28;97418;-70
2021/01/09 02:05:56;;;;;;;7.07;6.40;;;;;;;8.34;nan;101295.16;4979386;28;97815;-70
2021/01/09 02:08:29;;;;;;;7.72;7.03;;;;;;;8.33;nan;101299.47;4979346;28;98000;-70
2021/01/09 02:11:00;;;;;;;8.57;6.72;;;;;;;8.30;nan;101294.03;4977996;28;98167;-70
2021/01/09 02:13:36;;;;;;;8.23;7.35;;;;;;;8.26;nan;101296.31;4977079;28;97156;-69
2021/01/09 02:16:05;;;;;;;8.35;7.55;;;;;;;8.23;nan;101299.56;4978414;28;97960;-73
2021/01/09 02:18:34;;;;;;;9.10;7.38;;;;;;;8.21;nan;101302.09;4974638;28;97939;-69
2021/01/09 02:21:05;;;;;;;8.63;7.40;;;;;;;8.25;nan;101299.75;4978437;28;97107;-70
2021/01/09 02:23:34;;;;;;;8.75;7.07;;;;;;;8.27;nan;101303.34;4980545;28;97219;-70
2021/01/09 02:26:01;;;;;;;9.63;7.72;;;;;;;8.23;nan;101301.31;4960419;28;97904;-72
2021/01/09 02:28:29;;;;;;;7.38;6.68;;;;;;;8.19;nan;101297.56;4975515;28;97939;-70
2021/01/09 02:30:59;;;;;;;8.38;7.18;;;;;;;8.17;nan;101297.44;4961576;28;98104;-72
2021/01/09 02:33:28;;;;;;;8.77;7.45;;;;;;;8.16;nan;101293.00;4978918;28;97100;-70
2021/01/09 02:35:55;;;;;;;8.30;7.47;;;;;;;8.16;nan;101295.63;4963039;28;96880;-70
2021/01/09 02:38:23;;;;;;;8.50;7.32;;;;;;;8.17;nan;101297.44;4976697;28;98998;-69
2021/01/09 02:40:51;;;;;;;8.18;7.38;;;;;;;8.16;nan;101303.47;4961218;28;97895;-70
2021/01/09 02:43:19;;;;;;;9.43;8.00;;;;;;;8.17;nan;101301.78;4960757;28;96820;-70
2021/01/09 02:45:46;;;;;;;9.45;7.70;;;;;;;8.17;nan;101294.81;4979053;28;97105;-70
2021/01/09 02:48:14;;;;;;;7.82;6.82;;;;;;;8.18;nan;101299.25;4976678;28;99242;-70
2021/01/09 02:50:41;;;;;;;9.10;7.72;;;;;;;8.20;nan;101301.97;4960236;28;99074;-69
2021/01/09 02:53:10;;;;;;;9.65;8.57;;;;;;;8.17;nan;101297.44;4980017;28;97308;-70
2021/01/09 02:55:38;;;;;;;8.75;7.28;;;;;;;8.14;nan;101310.31;4959278;28;98685;-69
2021/01/09 02:58:06;;;;;;;9.20;7.90;;;;;;;8.13;nan;101307.59;4978249;28;99690;-69
2021/01/09 03:00:34;;;;;;;8.55;7.65;;;;;;;8.17;nan;101299.16;4975834;28;98301;-69
2021/01/09 03:03:01;;;;;;;8.23;7.20;;;;;;;8.15;nan;101308.59;4976466;28;97481;-69
2021/01/09 03:05:29;;;;;;;9.35;7.63;;;;;;;8.11;nan;101323.19;4958034;28;97577;-70
2021/01/09 03:07:56;;;;;;;8.20;7.15;;;;;;;8.13;nan;101321.59;4977290;28;97917;-69
2021/01/09 03:10:24;;;;;;;7.95;7.22;;;;;;;8.13;nan;101320.66;4977821;28;97979;-69
2021/01/09 03:12:51;;;;;;;7.65;6.97;;;;;;;8.09;nan;101318.63;4959532;28;97997;-70
2021/01/09 03:15:20;;;;;;;7.88;7.07;;;;;;;8.11;nan;101323.19;4976884;28;97391;-69
2021/01/09 03:17:48;;;;;;;7.45;6.72;;;;;;;8.10;nan;101320.47;4959189;28;98129;-70
2021/01/09 03:20:16;;;;;;;7.97;7.20;;;;;;;8.05;nan;101317.50;4959747;28;97818;-69
2021/01/09 03:22:44;;;;;;;8.20;7.22;;;;;;;8.07;nan;101326.38;4976629;28;98038;-70
2021/01/09 03:25:12;;;;;;;9.13;7.38;;;;;;;8.09;nan;101326.47;4978514;28;97827;-69
2021/01/09 03:27:39;;;;;;;7.65;6.85;;;;;;;8.09;nan;101337.84;4976553;28;98923;-70
2021/01/09 03:30:08;;;;;;;8.00;6.70;;;;;;;8.09;nan;101340.47;4976777;28;98049;-68
2021/01/09 03:32:37;;;;;;;7.60;6.40;;;;;;;8.09;nan;101350.94;4976418;28;97692;-70
2021/01/09 03:35:05;;;;;;;7.75;6.65;;;;;;;8.03;nan;101342.66;4978037;28;97513;-68
2021/01/09 03:37:33;;;;;;;6.97;6.30;;;;;;;7.99;nan;101350.19;4975659;28;98442;-70
2021/01/09 03:40:18;;;;;;;6.80;6.15;;;;;;;8.02;nan;101348.69;4977567;28;97766;-69
2021/01/09 03:42:45;;;;;;;7.78;7.07;;;;;;;8.05;nan;101343.66;4977200;28;96788;-69
2021/01/09 03:45:13;;;;;;;6.82;6.22;;;;;;;8.08;nan;101351.72;4959849;28;97132;-69
2021/01/09 03:47:42;;;;;;;7.35;6.30;;;;;;;8.05;nan;101345.38;4976116;28;99233;-70
2021/01/09 03:50:28;;;;;;;7.20;5.97;;;;;;;7.99;nan;101347.56;4977726;28;98028;-70
2021/01/09 03:52:56;;;;;;;6.65;6.05;;;;;;;7.97;nan;101349.16;4978327;28;96728;-71
2021/01/09 03:55:23;;;;;;;8.55;6.57;;;;;;;7.96;nan;101353.47;4958871;28;97640;-70
2021/01/09 03:57:51;;;;;;;7.00;6.43;;;;;;;7.97;nan;101347.41;4956004;28;97520;-70
2021/01/09 04:00:19;;;;;;;6.80;6.15;;;;;;;7.99;nan;101352.78;4976323;28;99096;-70
2021/01/09 04:02:47;;;;;;;6.45;5.93;;;;;;;8.05;nan;101353.22;4975726;28;97032;-69
2021/01/09 04:05:14;;;;;;;6.72;6.13;;;;;;;8.08;nan;101356.97;4975473;28;97119;-70
2021/01/09 04:07:41;;;;;;;6.75;6.15;;;;;;;8.06;nan;101358.53;4977252;28;97896;-70
2021/01/09 04:10:09;;;;;;;6.65;5.47;;;;;;;8.03;nan;101355.72;4977604;28;97057;-68
2021/01/09 04:12:37;;;;;;;6.60;5.88;;;;;;;8.04;nan;101360.19;4978182;28;96866;-70
2021/01/09 04:15:06;;;;;;;6.43;5.93;;;;;;;8.05;nan;101356.75;4974918;28;97163;-70
2021/01/09 04:17:33;;;;;;;7.57;6.63;;;;;;;8.03;nan;101358.34;4976977;28;97419;-69
2021/01/09 04:20:02;;;;;;;6.53;5.95;;;;;;;7.98;nan;101346.66;4975760;28;97803;-69
2021/01/09 04:22:30;;;;;;;6.63;6.03;;;;;;;8.00;nan;101354.59;4957372;28;97715;-68
2021/01/09 04:24:58;;;;;;;6.78;5.65;;;;;;;8.03;nan;101358.34;4978050;28;97455;-69
2021/01/09 04:27:25;;;;;;;6.78;6.18;;;;;;;8.04;nan;101357.56;4975125;28;98018;-69
2021/01/09 04:29:53;;;;;;;6.70;6.10;;;;;;;8.08;nan;101358.69;4977124;28;98030;-69
2021/01/09 04:32:20;;;;;;;6.85;6.25;;;;;;;8.08;nan;101366.53;4976717;28;97103;-70
2021/01/09 04:34:49;;;;;;;6.47;5.88;;;;;;;8.06;nan;101360.28;4978538;28;97353;-70
2021/01/09 04:37:18;;;;;;;6.25;5.75;;;;;;;8.08;nan;101364.81;4977395;28;96793;-70
2021/01/09 04:39:46;;;;;;;6.15;5.60;;;;;;;8.13;nan;101370.38;4957732;28;99479;-69
2021/01/09 04:42:13;;;;;;;6.32;5.82;;;;;;;8.10;nan;101373.69;4977166;28;97270;-69
2021/01/09 04:44:41;;;;;;;6.75;6.22;;;;;;;8.14;nan;101374.81;4977070;28;97449;-69
2021/01/09 04:47:09;;;;;;;5.72;5.38;;;;;;;8.11;nan;101378.13;4974753;28;98411;-68
2021/01/09 04:49:37;;;;;;;6.03;5.50;;;;;;;8.12;nan;101376.41;4976173;28;97022;-70
2021/01/09 04:52:04;;;;;;;5.65;5.13;;;;;;;8.10;nan;101372.78;4978431;28;97408;-70
2021/01/09 04:54:33;;;;;;;6.38;5.90;;;;;;;8.08;nan;101385.72;4974744;28;97242;-70
2021/01/09 04:57:00;;;;;;;5.53;5.22;;;;;;;8.09;nan;101389.28;4975959;28;97818;-70
2021/01/09 04:59:28;;;;;;;6.35;5.80;;;;;;;8.10;nan;101373.69;4977103;28;100047;-70
2021/01/09 05:01:59;;;;;;;5.93;5.53;;;;;;;8.14;nan;101386.19;4969375;28;98226;-68
2021/01/09 05:04:26;;;;;;;6.00;5.50;;;;;;;8.11;nan;101388.59;4975310;28;96786;-69
2021/01/09 05:06:54;;;;;;;5.78;5.30;;;;;;;8.07;nan;101391.78;4973908;28;97831;-68
2021/01/09 05:09:21;;;;;;;5.82;5.35;;;;;;;7.99;nan;101399.88;4975950;28;97086;-69
2021/01/09 05:11:49;;;;;;;6.80;6.30;;;;;;;7.96;nan;101397.03;4976416;28;97261;-69
2021/01/09 05:14:35;;;;;;;6.30;5.75;;;;;;;7.94;nan;101399.53;4974598;28;97391;-69
2021/01/09 05:17:03;;;;;;;6.30;5.80;;;;;;;7.95;nan;101403.06;4959129;28;98010;-69
2021/01/09 05:19:32;;;;;;;6.60;6.10;;;;;;;8.02;nan;101413.16;4978711;28;97860;-68
2021/01/09 05:22:02;;;;;;;6.20;5.70;;;;;;;8.02;nan;101415.78;4962312;28;97433;-69
2021/01/09 05:24:30;;;;;;;15.07;9.80;;;;;;;8.06;nan;101418.72;4978491;28;96828;-69
2021/01/09 05:26:59;;;;;;;7.78;7.05;;;;;;;8.10;nan;101431.25;4979566;28;97960;-68
2021/01/09 05:29:27;;;;;;;6.35;5.80;;;;;;;8.12;nan;101423.50;4961594;28;99453;-69
2021/01/09 05:31:55;;;;;;;6.35;5.90;;;;;;;8.16;nan;101416.00;4962144;28;96976;-69
2021/01/09 05:34:22;;;;;;;5.88;5.47;;;;;;;8.18;nan;101423.94;4979277;28;97955;-69
2021/01/09 05:36:50;;;;;;;6.05;5.65;;;;;;;8.19;nan;101439.75;4980651;28;98041;-69
2021/01/09 05:39:17;;;;;;;6.05;5.55;;;;;;;8.20;nan;101428.50;4978370;28;97961;-69
2021/01/09 05:41:45;;;;;;;5.72;5.32;;;;;;;8.22;nan;101426.00;4978336;28;98444;-70
2021/01/09 05:44:13;;;;;;;6.15;5.65;;;;;;;8.24;nan;101434.91;4979245;28;97396;-70
2021/01/09 05:46:41;;;;;;;5.88;5.47;;;;;;;8.26;nan;101425.47;4962133;28;98085;-70
2021/01/09 05:49:10;;;;;;;7.38;5.97;;;;;;;8.27;nan;101432.50;4978337;28;98037;-69
2021/01/09 05:52:13;;;;;;;5.95;5.55;;;;;;;8.30;nan;101431.81;4981302;28;97710;-70
2021/01/09 05:54:42;;;;;;;6.10;5.60;;;;;;;8.23;nan;101439.19;4960261;28;97438;-70
2021/01/09 05:57:16;;;;;;;6.28;5.78;;;;;;;8.23;nan;101440.88;4978245;28;98246;-68
2021/01/09 05:59:45;;;;;;;7.03;6.40;;;;;;;8.19;nan;101439.75;4977553;28;97915;-69
2021/01/09 06:02:13;;;;;;;6.60;5.90;;;;;;;8.18;nan;101444.88;4979223;28;98020;-70
2021/01/09 06:04:43;;;;;;;6.25;5.65;;;;;;;8.20;nan;101451.16;4978896;28;96806;-70
2021/01/09 06:07:20;;;;;;;5.90;5.50;;;;;;;8.25;nan;101455.03;4946823;28;97007;-70
2021/01/09 06:09:52;;;;;;;6.47;5.80;;;;;;;8.31;nan;101462.41;4976548;28;99124;-70
2021/01/09 06:12:22;;;;;;;8.27;6.00;;;;;;;8.29;nan;101462.31;4977862;28;97011;-70
2021/01/09 06:14:51;;;;;;;6.82;6.32;;;;;;;8.31;nan;101465.03;4958819;28;97723;-69
2021/01/09 06:17:21;;;;;;;6.88;6.20;;;;;;;8.33;nan;101469.59;4961191;28;98279;-70
2021/01/09 06:19:49;;;;;;;6.60;6.03;;;;;;;8.35;nan;101470.63;4961337;28;100699;-69
2021/01/09 06:22:17;;;;;;;7.10;6.50;;;;;;;8.40;nan;101473.56;4979155;28;97871;-70
2021/01/09 06:24:44;;;;;;;7.35;6.05;;;;;;;8.45;nan;101477.44;4974594;28;96771;-70
2021/01/09 06:27:22;;;;;;;7.03;6.43;;;;;;;8.48;nan;101482.88;4976573;28;98370;-70
2021/01/09 06:29:53;;;;;;;6.95;6.32;;;;;;;8.52;nan;101483.19;4958586;28;99244;-69
2021/01/09 06:32:22;;;;;;;6.70;6.10;;;;;;;8.57;nan;101483.56;4960768;28;96994;-71
2021/01/09 06:34:50;;;;;;;7.03;6.35;;;;;;;8.59;nan;101489.81;4978829;28;97234;-71
2021/01/09 06:37:21;;;;;;;6.35;5.78;;;;;;;8.57;nan;101488.78;4979634;28;97442;-70
2021/01/09 06:39:50;;;;;;;6.93;6.35;;;;;;;8.58;nan;101495.81;4958615;28;98707;-71
2021/01/09 06:42:19;;;;;;;7.15;6.50;;;;;;;8.60;nan;101491.63;4977381;28;97049;-69
2021/01/09 06:44:52;;;;;;;6.50;5.90;;;;;;;8.60;nan;101489.00;4978996;28;96830;-71
2021/01/09 06:47:26;;;;;;;7.00;6.40;;;;;;;8.61;nan;101496.97;4978692;28;102588;-70
2021/01/09 06:49:53;;;;;;;6.93;6.22;;;;;;;8.60;nan;101499.47;4977441;28;97179;-70
2021/01/09 06:52:56;;;;;;;7.45;6.68;;;;;;;8.60;nan;101505.63;4978767;28;97996;-70
2021/01/09 06:56:03;;;;;;;7.20;6.60;;;;;;;8.62;nan;101504.03;4975601;28;96791;-71
2021/01/09 06:58:33;;;;;;;6.75;5.97;;;;;;;8.56;nan;101502.69;4968968;28;99088;-71
2021/01/09 07:01:26;;;;;;;7.57;6.88;;;;;;;8.61;nan;101512.66;4973547;28;99082;-72
2021/01/09 07:03:54;;;;;;;6.95;6.25;;;;;;;8.62;nan;101508.34;4942026;28;97472;-70
2021/01/09 07:06:58;;;;;;;6.57;5.97;;;;;;;8.66;nan;101513.03;4944438;28;97848;-72
2021/01/09 07:09:28;;;;;;;7.03;6.25;;;;;;;8.63;nan;101512.81;4974301;28;99227;-72
2021/01/09 07:11:56;;;;;;;6.82;6.22;;;;;;;8.61;nan;101514.41;4942832;28;99078;-71
2021/01/09 07:14:24;;;;;;;7.45;6.40;;;;;;;8.59;nan;101519.53;4975639;28;97988;-71
2021/01/09 07:16:56;;;;;;;6.80;6.20;;;;;;;8.60;nan;101526.59;4977193;28;97609;-71
2021/01/09 07:19:24;;;;;;;7.85;7.05;;;;;;;8.59;nan;101526.47;4956403;28;99467;-71
2021/01/09 07:21:53;;;;;;;7.53;6.80;;;;;;;8.56;nan;101528.88;4958755;28;97819;-71
2021/01/09 07:24:22;;;;;;;7.57;6.78;;;;;;;8.52;nan;101529.44;4975874;28;96816;-70
2021/01/09 07:26:51;;;;;;;7.70;7.00;;;;;;;8.52;nan;101539.94;4976326;28;97188;-70
2021/01/09 07:29:24;;;;;;;7.50;6.78;;;;;;;8.52;nan;101540.81;4976263;28;97450;-71
2021/01/09 07:31:53;;;;;;;7.50;6.80;;;;;;;8.58;nan;101538.66;4959604;28;97891;-71
2021/01/09 07:34:22;;;;;;;7.03;6.38;;;;;;;8.63;nan;101541.63;4976562;28;97561;-70
2021/01/09 07:36:53;;;;;;;8.02;7.22;;;;;;;8.70;nan;101552.66;4977610;28;97744;-71
2021/01/09 07:39:23;;;;;;;8.13;7.32;;;;;;;8.72;nan;101550.13;4976028;28;99627;-71
2021/01/09 07:41:51;;;;;;;8.07;7.00;;;;;;;8.67;nan;101556.72;4974814;28;98043;-70
2021/01/09 07:44:20;;;;;;;9.10;8.10;;;;;;;8.62;nan;101555.50;4969265;28;97632;-70
2021/01/09 07:46:53;;;;;;;8.55;7.70;;;;;;;8.60;nan;101557.09;4972545;28;97739;-69
2021/01/09 07:49:28;;;;;;;7.80;7.00;;;;;;;8.64;nan;101564.38;4975669;28;97995;-70
2021/01/09 07:52:01;;;;;;;8.40;7.60;;;;;;;8.68;nan;101566.41;4976551;28;99022;-70
2021/01/09 07:54:39;;;;;;;7.95;6.72;;;;;;;8.74;nan;101561.63;4968624;28;99447;-70
2021/01/09 07:57:22;;;;;;;7.90;7.10;;;;;;;8.79;nan;101571.66;4973064;28;97642;-71
2021/01/09 08:00:04;;;;;;;7.75;7.05;;;;;;;8.73;nan;101572.91;4974989;28;97398;-71
2021/01/09 08:02:34;;;;;;;8.50;7.45;;;;;;;8.74;nan;101577.34;4971065;28;97295;-70
2021/01/09 08:05:04;;;;;;;8.57;7.20;;;;;;;8.74;nan;101586.09;4970426;28;98058;-70
2021/01/09 08:07:31;;;;;;;10.63;8.18;;;;;;;8.77;nan;101582.81;4954981;28;97990;-70
2021/01/09 08:09:59;;;;;;;9.40;7.50;;;;;;;8.75;nan;101590.56;4971289;28;99186;-71
2021/01/09 08:12:27;;;;;;;8.73;7.68;;;;;;;8.73;nan;101583.38;4954604;28;98191;-70
2021/01/09 08:14:57;;;;;;;10.65;8.48;;;;;;;8.73;nan;101593.84;4975826;28;97252;-70
2021/01/09 08:17:24;;;;;;;9.65;7.55;;;;;;;8.77;nan;101593.28;4974246;28;97479;-71
2021/01/09 08:19:53;;;;;;;11.93;8.60;;;;;;;8.82;nan;101597.13;4976180;28;97395;-71
2021/01/09 08:22:20;;;;;;;9.18;7.43;;;;;;;8.83;nan;101598.97;4974069;28;99003;-70
2021/01/09 08:24:48;;;;;;;11.55;8.70;;;;;;;8.83;nan;101604.22;4977757;28;96918;-70
2021/01/09 08:27:19;;;;;;;10.23;8.27;;;;;;;8.89;nan;101602.03;4957961;28;97326;-70
2021/01/09 08:29:47;;;;;;;11.43;8.15;;;;;;;8.88;nan;101597.59;4975358;28;99047;-71
2021/01/09 08:32:15;;;;;;;11.18;8.48;;;;;;;8.84;nan;101600.78;4976216;28;97741;-70
2021/01/09 08:34:48;;;;;;;11.45;9.38;;;;;;;8.82;nan;101602.38;4975297;28;97958;-70
2021/01/09 08:37:19;;;;;;;11.73;8.40;;;;;;;8.81;nan;101600.56;4975137;28;97991;-70
2021/01/09 08:39:46;;;;;;;11.73;9.63;;;;;;;8.80;nan;101609.22;4956544;28;98098;-71
2021/01/09 08:42:15;;;;;;;12.35;8.65;;;;;;;8.76;nan;101612.41;4976842;28;96808;-71
2021/01/09 08:44:49;;;;;;;15.13;9.35;;;;;;;8.82;nan;101610.25;4970130;28;97727;-71
2021/01/09 08:47:16;;;;;;;14.55;9.65;;;;;;;8.78;nan;101605.56;4973175;28;97207;-71
2021/01/09 08:49:45;;;;;;;13.35;9.52;;;;;;;8.80;nan;101609.22;4962482;28;98001;-71
2021/01/09 08:52:17;;;;;;;14.35;9.75;;;;;;;8.81;nan;101611.94;4969959;28;97213;-71
2021/01/09 08:54:46;;;;;;;15.07;9.85;;;;;;;8.82;nan;101619.03;4974304;28;97652;-71
2021/01/09 08:57:14;;;;;;;14.77;9.63;;;;;;;8.87;nan;101621.97;4949594;28;98869;-71
2021/01/09 08:59:42;;;;;;;11.93;8.90;;;;;;;8.85;nan;101623.59;4966708;28;98244;-71
2021/01/09 09:02:11;;;;;;;15.35;10.60;;;;;;;8.78;nan;101629.16;4973759;28;97993;-72
2021/01/09 09:04:42;;;;;;;14.38;9.60;;;;;;;8.70;nan;101633.84;4957095;28;96977;-71
2021/01/09 09:07:10;;;;;;;12.75;9.02;;;;;;;8.68;nan;101639.75;4976420;28;96932;-71
2021/01/09 09:09:41;;;;;;;13.95;9.57;;;;;;;8.69;nan;101636.31;4957455;28;97934;-71
2021/01/09 09:12:10;;;;;;;13.30;8.88;;;;;;;8.65;nan;101637.81;4976156;28;98093;-71
2021/01/09 09:14:38;;;;;;;15.40;10.25;;;;;;;8.64;nan;101643.88;4976330;28;98066;-71
2021/01/09 09:17:06;;;;;;;12.55;9.20;;;;;;;8.70;nan;101646.03;4957513;28;97893;-71
2021/01/09 09:19:40;;;;;;;11.63;9.07;;;;;;;8.67;nan;101640.53;4973272;28;98094;-71
2021/01/09 09:22:08;;;;;;;14.05;8.70;;;;;;;8.64;nan;101643.88;4959190;28;100960;-72
2021/01/09 09:24:40;;;;;;;13.13;9.60;;;;;;;8.63;nan;101647.25;4973804;28;96860;-71
2021/01/09 09:27:21;;;;;;;10.90;8.93;;;;;;;8.65;nan;101655.25;4957193;28;97339;-71
2021/01/09 09:30:11;;;;;;;13.38;8.82;;;;;;;8.64;nan;101646.47;4960559;28;97305;-73
2021/01/09 09:32:40;;;;;;;13.90;9.80;;;;;;;8.70;nan;101653.88;4958010;28;97216;-71
2021/01/09 09:35:24;;;;;;;14.70;9.35;;;;;;;8.77;nan;101648.28;4975022;28;97846;-71
2021/01/09 09:37:52;;;;;;;13.15;9.55;;;;;;;8.83;nan;101651.38;4974396;28;98032;-70
2021/01/09 09:40:22;;;;;;;12.95;9.32;;;;;;;8.80;nan;101645.88;4957600;28;98038;-70
2021/01/09 09:42:50;;;;;;;13.45;9.13;;;;;;;8.80;nan;101645.88;4972759;28;98600;-69
2021/01/09 09:45:17;;;;;;;16.30;11.38;;;;;;;8.82;nan;101639.06;4973367;28;98898;-69
2021/01/09 09:47:49;;;;;;;15.02;9.85;;;;;;;8.86;nan;101649.91;4969420;28;98171;-70
2021/01/09 09:50:20;;;;;;;18.13;10.48;;;;;;;8.87;nan;101643.84;4969186;28;98522;-70
2021/01/09 09:52:57;;;;;;;14.55;9.77;;;;;;;8.90;nan;101643.16;4972870;28;97533;-69
2021/01/09 09:55:26;;;;;;;16.83;10.75;;;;;;;8.99;nan;101643.84;4972704;28;98180;-71
2021/01/09 09:58:07;;;;;;;15.85;10.73;;;;;;;9.01;nan;101645.75;4950824;28;97946;-71
2021/01/09 10:00:41;;;;;;;17.50;10.75;;;;;;;9.04;nan;101647.69;4962376;28;100615;-68
2021/01/09 10:03:09;;;;;;;20.25;12.05;;;;;;;9.01;nan;101653.59;4966589;28;97817;-71
2021/01/09 10:05:37;;;;;;;17.75;11.52;;;;;;;9.00;nan;101646.56;4966876;28;97984;-70
2021/01/09 10:08:12;;;;;;;17.02;10.77;;;;;;;9.05;nan;101650.41;4952840;28;97798;-71
2021/01/09 10:10:41;;;;;;;18.30;11.75;;;;;;;9.08;nan;101647.13;4955521;28;97451;-70
2021/01/09 10:13:09;;;;;;;18.02;11.73;;;;;;;9.09;nan;101652.47;4960131;28;97836;-70
2021/01/09 10:15:37;;;;;;;18.73;11.20;;;;;;;9.11;nan;101653.50;4977896;28;97246;-70
2021/01/09 10:18:05;;;;;;;17.40;11.27;;;;;;;9.16;nan;101659.06;4977193;28;97568;-71
2021/01/09 10:20:32;;;;;;;22.45;11.63;;;;;;;9.20;nan;101655.84;4959378;28;97959;-71
2021/01/09 10:22:59;;;;;;;20.15;11.63;;;;;;;9.14;nan;101658.06;4955554;28;98021;-70
2021/01/09 10:25:27;;;;;;;19.45;11.75;;;;;;;9.17;nan;101650.41;4976576;28;98937;-71
2021/01/09 10:27:55;;;;;;;18.30;11.18;;;;;;;9.23;nan;101661.34;4977717;28;97314;-71
2021/01/09 10:30:23;;;;;;;20.45;11.98;;;;;;;9.21;nan;101657.69;4977637;28;99107;-72
2021/01/09 10:32:51;;;;;;;18.35;11.35;;;;;;;9.16;nan;101652.09;4976119;28;98321;-72
2021/01/09 10:35:18;;;;;;;20.95;11.15;;;;;;;9.08;nan;101650.66;4971875;28;97779;-71
2021/01/09 10:37:47;;;;;;;20.35;11.90;;;;;;;9.10;nan;101658.63;4973738;28;97540;-69
2021/01/09 10:40:15;;;;;;;22.23;12.63;;;;;;;9.08;nan;101653.28;4970573;28;98829;-70
2021/01/09 10:42:42;;;;;;;22.30;11.00;;;;;;;9.09;nan;101656.78;4949920;28;97958;-70
2021/01/09 10:45:14;;;;;;;21.70;12.10;;;;;;;9.09;nan;101662.94;4965045;28;98350;-70
2021/01/09 10:47:41;;;;;;;22.80;11.80;;;;;;;9.07;nan;101659.31;4966398;28;98100;-70
2021/01/09 10:50:25;;;;;;;21.17;11.50;;;;;;;9.08;nan;101654.97;4967568;28;97946;-70
2021/01/09 10:52:53;;;;;;;19.58;11.90;;;;;;;9.07;nan;101663.63;4943057;28;99240;-69
2021/01/09 10:55:21;;;;;;;19.50;11.85;;;;;;;9.09;nan;101662.03;4946814;28;97238;-69
2021/01/09 10:57:48;;;;;;;23.70;12.27;;;;;;;9.05;nan;101665.25;4951100;28;98474;-71
2021/01/09 11:00:19;;;;;;;21.25;12.93;;;;;;;9.00;nan;101661.38;4966227;28;103689;-69
2021/01/09 11:02:47;;;;;;;19.98;11.82;;;;;;;9.02;nan;101665.00;4946807;28;98417;-70
2021/01/09 11:05:15;;;;;;;22.77;12.30;;;;;;;9.04;nan;101663.41;4964938;28;97799;-69
2021/01/09 11:07:42;;;;;;;21.92;11.90;;;;;;;9.00;nan;101664.91;4964316;28;97389;-69
2021/01/09 11:10:11;;;;;;;22.63;11.48;;;;;;;8.96;nan;101664.56;4962048;28;99257;-71
2021/01/09 11:12:39;;;;;;;22.17;12.00;;;;;;;8.95;nan;101662.75;4937722;28;99231;-70
2021/01/09 11:15:08;;;;;;;19.85;11.68;;;;;;;8.92;nan;101665.16;4964406;28;97705;-70
2021/01/09 11:17:37;;;;;;;20.23;11.57;;;;;;;8.97;nan;101664.69;4970662;28;97143;-70
2021/01/09 11:20:05;;;;;;;23.05;11.25;;;;;;;8.99;nan;101664.81;4969459;28;97830;-71
2021/01/09 11:22:33;;;;;;;22.38;11.65;;;;;;;9.01;nan;101664.09;4939603;28;98924;-71
2021/01/09 11:25:00;;;;;;;18.70;10.50;;;;;;;9.03;nan;101669.47;4952652;28;98218;-71
2021/01/09 11:27:28;;;;;;;17.33;10.55;;;;;;;8.99;nan;101670.03;4948321;28;98177;-71
2021/01/09 11:29:55;;;;;;;23.00;11.45;;;;;;;8.94;nan;101672.31;4964139;28;97223;-70
2021/01/09 11:32:43;;;;;;;19.20;11.32;;;;;;;8.89;nan;101680.63;4967937;28;97901;-70
2021/01/09 11:35:12;;;;;;;19.90;11.07;;;;;;;8.91;nan;101672.09;4955703;28;98326;-71
2021/01/09 11:37:39;;;;;;;18.40;10.80;;;;;;;8.99;nan;101675.28;4964275;28;97237;-70
2021/01/09 11:40:07;;;;;;;19.52;12.13;;;;;;;8.99;nan;101684.06;4973389;28;97853;-70
2021/01/09 11:42:35;;;;;;;18.52;10.75;;;;;;;8.98;nan;101682.22;4973946;28;97687;-70
2021/01/09 11:45:03;;;;;;;19.88;10.95;;;;;;;8.98;nan;101684.84;4974057;28;97549;-68
2021/01/09 11:47:30;;;;;;;19.88;11.63;;;;;;;8.96;nan;101685.50;4973649;28;97087;-69
2021/01/09 11:49:58;;;;;;;20.70;10.98;;;;;;;8.91;nan;101682.56;4973633;28;97954;-68
2021/01/09 11:52:26;;;;;;;18.98;10.95;;;;;;;8.90;nan;101679.84;4972024;28;98895;-70
2021/01/09 11:54:53;;;;;;;21.15;12.40;;;;;;;8.84;nan;101679.38;4956066;28;97444;-72
2021/01/09 11:57:21;;;;;;;21.15;10.93;;;;;;;8.80;nan;101687.81;4963826;28;98025;-70
2021/01/09 11:59:48;;;;;;;16.13;10.68;;;;;;;8.77;nan;101687.59;4968954;28;98014;-72